sensor_id;sensor_type;location;lat;lon;timestamp;pressure;altitude;pressure_sealevel;temperature
12854;BMP180;6495;51.808;7.478;2023-05-20T00:00:44;101880.00;;;15.80
12854;BMP180;6495;51.808;7.478;2023-05-20T00:03:15;101891.00;;;15.80
12854;BMP180;6495;51.808;7.478;2023-05-20T00:05:45;101890.00;;;15.80
12854;BMP180;6495;51.808;7.478;2023-05-20T00:08:13;101895.00;;;15.80
12854;BMP180;6495;51.808;7.478;2023-05-20T00:10:41;101890.00;;;15.70
12854;BMP180;6495;51.808;7.478;2023-05-20T00:13:10;101888.00;;;15.70
12854;BMP180;6495;51.808;7.478;2023-05-20T00:15:38;101891.00;;;15.70
12854;BMP180;6495;51.808;7.478;2023-05-20T00:18:07;101890.00;;;15.70
12854;BMP180;6495;51.808;7.478;2023-05-20T00:20:35;101895.00;;;15.70
12854;BMP180;6495;51.808;7.478;2023-05-20T00:23:05;101886.00;;;15.70
12854;BMP180;6495;51.808;7.478;2023-05-20T00:25:33;101882.00;;;15.60
12854;BMP180;6495;51.808;7.478;2023-05-20T00:28:02;101888.00;;;15.60
12854;BMP180;6495;51.808;7.478;2023-05-20T00:30:30;101884.00;;;15.60
12854;BMP180;6495;51.808;7.478;2023-05-20T00:32:59;101893.00;;;15.60
12854;BMP180;6495;51.808;7.478;2023-05-20T00:35:27;101888.00;;;15.60
12854;BMP180;6495;51.808;7.478;2023-05-20T00:37:56;101882.00;;;15.60
12854;BMP180;6495;51.808;7.478;2023-05-20T00:40:25;101888.00;;;15.50
12854;BMP180;6495;51.808;7.478;2023-05-20T00:42:54;101896.00;;;15.50
12854;BMP180;6495;51.808;7.478;2023-05-20T00:45:22;101885.00;;;15.50
12854;BMP180;6495;51.808;7.478;2023-05-20T00:47:51;101889.00;;;15.40
12854;BMP180;6495;51.808;7.478;2023-05-20T00:50:19;101881.00;;;15.40
12854;BMP180;6495;51.808;7.478;2023-05-20T00:52:48;101890.00;;;15.40
12854;BMP180;6495;51.808;7.478;2023-05-20T00:55:17;101889.00;;;15.40
12854;BMP180;6495;51.808;7.478;2023-05-20T00:57:48;101886.00;;;15.40
12854;BMP180;6495;51.808;7.478;2023-05-20T01:00:16;101888.00;;;15.30
12854;BMP180;6495;51.808;7.478;2023-05-20T01:02:45;101889.00;;;15.30
12854;BMP180;6495;51.808;7.478;2023-05-20T01:05:13;101890.00;;;15.30
12854;BMP180;6495;51.808;7.478;2023-05-20T01:07:42;101895.00;;;15.30
12854;BMP180;6495;51.808;7.478;2023-05-20T01:10:11;101887.00;;;15.20
12854;BMP180;6495;51.808;7.478;2023-05-20T01:12:45;101899.00;;;15.20
12854;BMP180;6495;51.808;7.478;2023-05-20T01:15:18;101890.00;;;15.20
12854;BMP180;6495;51.808;7.478;2023-05-20T01:17:53;101894.00;;;15.20
12854;BMP180;6495;51.808;7.478;2023-05-20T01:20:28;101897.00;;;15.10
12854;BMP180;6495;51.808;7.478;2023-05-20T01:22:59;101890.00;;;15.10
12854;BMP180;6495;51.808;7.478;2023-05-20T01:25:28;101893.00;;;15.10
12854;BMP180;6495;51.808;7.478;2023-05-20T01:27:57;101894.00;;;15.10
12854;BMP180;6495;51.808;7.478;2023-05-20T01:30:32;101894.00;;;15.00
12854;BMP180;6495;51.808;7.478;2023-05-20T01:33:09;101887.00;;;15.00
12854;BMP180;6495;51.808;7.478;2023-05-20T01:35:39;101883.00;;;14.90
12854;BMP180;6495;51.808;7.478;2023-05-20T01:38:11;101888.00;;;14.90
12854;BMP180;6495;51.808;7.478;2023-05-20T01:40:42;101879.00;;;14.90
12854;BMP180;6495;51.808;7.478;2023-05-20T01:43:11;101878.00;;;14.90
12854;BMP180;6495;51.808;7.478;2023-05-20T01:45:43;101876.00;;;14.90
12854;BMP180;6495;51.808;7.478;2023-05-20T01:48:12;101873.00;;;14.80
12854;BMP180;6495;51.808;7.478;2023-05-20T01:50:40;101878.00;;;14.80
12854;BMP180;6495;51.808;7.478;2023-05-20T01:53:11;101880.00;;;14.80
12854;BMP180;6495;51.808;7.478;2023-05-20T01:55:41;101873.00;;;14.80
12854;BMP180;6495;51.808;7.478;2023-05-20T01:58:09;101881.00;;;14.70
12854;BMP180;6495;51.808;7.478;2023-05-20T02:00:37;101873.00;;;14.70
12854;BMP180;6495;51.808;7.478;2023-05-20T02:03:06;101879.00;;;14.70
12854;BMP180;6495;51.808;7.478;2023-05-20T02:05:35;101862.00;;;14.60
12854;BMP180;6495;51.808;7.478;2023-05-20T02:08:05;101853.00;;;14.60
12854;BMP180;6495;51.808;7.478;2023-05-20T02:10:34;101864.00;;;14.50
12854;BMP180;6495;51.808;7.478;2023-05-20T02:13:02;101864.00;;;14.50
12854;BMP180;6495;51.808;7.478;2023-05-20T02:15:32;101864.00;;;14.50
12854;BMP180;6495;51.808;7.478;2023-05-20T02:18:01;101864.00;;;14.50
12854;BMP180;6495;51.808;7.478;2023-05-20T02:20:34;101870.00;;;14.50
12854;BMP180;6495;51.808;7.478;2023-05-20T02:23:03;101863.00;;;14.40
12854;BMP180;6495;51.808;7.478;2023-05-20T02:25:34;101869.00;;;14.40
12854;BMP180;6495;51.808;7.478;2023-05-20T02:28:02;101874.00;;;14.40
12854;BMP180;6495;51.808;7.478;2023-05-20T02:30:36;101875.00;;;14.40
12854;BMP180;6495;51.808;7.478;2023-05-20T02:33:05;101872.00;;;14.30
12854;BMP180;6495;51.808;7.478;2023-05-20T02:35:36;101869.00;;;14.30
12854;BMP180;6495;51.808;7.478;2023-05-20T02:38:04;101869.00;;;14.30
12854;BMP180;6495;51.808;7.478;2023-05-20T02:40:33;101859.00;;;14.30
12854;BMP180;6495;51.808;7.478;2023-05-20T02:43:02;101858.00;;;14.30
12854;BMP180;6495;51.808;7.478;2023-05-20T02:45:33;101857.00;;;14.30
12854;BMP180;6495;51.808;7.478;2023-05-20T02:48:01;101857.00;;;14.30
12854;BMP180;6495;51.808;7.478;2023-05-20T02:50:30;101858.00;;;14.20
12854;BMP180;6495;51.808;7.478;2023-05-20T02:52:59;101857.00;;;14.20
12854;BMP180;6495;51.808;7.478;2023-05-20T02:55:42;101854.00;;;14.20
12854;BMP180;6495;51.808;7.478;2023-05-20T02:58:40;101840.00;;;14.20
12854;BMP180;6495;51.808;7.478;2023-05-20T03:01:22;101845.00;;;14.10
12854;BMP180;6495;51.808;7.478;2023-05-20T03:03:50;101849.00;;;14.10
12854;BMP180;6495;51.808;7.478;2023-05-20T03:06:19;101845.00;;;14.10
12854;BMP180;6495;51.808;7.478;2023-05-20T03:08:48;101843.00;;;14.10
12854;BMP180;6495;51.808;7.478;2023-05-20T03:11:18;101847.00;;;14.10
12854;BMP180;6495;51.808;7.478;2023-05-20T03:13:48;101847.00;;;14.10
12854;BMP180;6495;51.808;7.478;2023-05-20T03:16:16;101842.00;;;14.10
12854;BMP180;6495;51.808;7.478;2023-05-20T03:18:45;101850.00;;;14.00
12854;BMP180;6495;51.808;7.478;2023-05-20T03:21:13;101841.00;;;14.00
12854;BMP180;6495;51.808;7.478;2023-05-20T03:23:42;101849.00;;;14.00
12854;BMP180;6495;51.808;7.478;2023-05-20T03:26:10;101858.00;;;14.00
12854;BMP180;6495;51.808;7.478;2023-05-20T03:28:40;101854.00;;;14.00
12854;BMP180;6495;51.808;7.478;2023-05-20T03:31:08;101853.00;;;13.90
12854;BMP180;6495;51.808;7.478;2023-05-20T03:33:37;101852.00;;;13.90
12854;BMP180;6495;51.808;7.478;2023-05-20T03:36:05;101854.00;;;13.90
12854;BMP180;6495;51.808;7.478;2023-05-20T03:38:34;101862.00;;;13.90
12854;BMP180;6495;51.808;7.478;2023-05-20T03:41:02;101854.00;;;13.90
12854;BMP180;6495;51.808;7.478;2023-05-20T03:43:32;101849.00;;;13.90
12854;BMP180;6495;51.808;7.478;2023-05-20T03:46:02;101848.00;;;13.90
12854;BMP180;6495;51.808;7.478;2023-05-20T03:48:30;101854.00;;;13.90
12854;BMP180;6495;51.808;7.478;2023-05-20T03:51:03;101859.00;;;13.90
12854;BMP180;6495;51.808;7.478;2023-05-20T03:53:32;101843.00;;;13.80
12854;BMP180;6495;51.808;7.478;2023-05-20T03:56:00;101839.00;;;13.80
12854;BMP180;6495;51.808;7.478;2023-05-20T03:58:29;101847.00;;;13.80
12854;BMP180;6495;51.808;7.478;2023-05-20T04:00:57;101844.00;;;13.80
12854;BMP180;6495;51.808;7.478;2023-05-20T04:03:27;101842.00;;;13.80
12854;BMP180;6495;51.808;7.478;2023-05-20T04:05:56;101845.00;;;13.80
12854;BMP180;6495;51.808;7.478;2023-05-20T04:08:24;101847.00;;;13.70
12854;BMP180;6495;51.808;7.478;2023-05-20T04:10:55;101840.00;;;13.70
12854;BMP180;6495;51.808;7.478;2023-05-20T04:13:24;101836.00;;;13.70
12854;BMP180;6495;51.808;7.478;2023-05-20T04:15:52;101837.00;;;13.80
12854;BMP180;6495;51.808;7.478;2023-05-20T04:18:20;101836.00;;;13.80
12854;BMP180;6495;51.808;7.478;2023-05-20T04:20:53;101833.00;;;13.80
12854;BMP180;6495;51.808;7.478;2023-05-20T04:23:22;101832.00;;;13.80
12854;BMP180;6495;51.808;7.478;2023-05-20T04:25:50;101846.00;;;13.80
12854;BMP180;6495;51.808;7.478;2023-05-20T04:28:18;101842.00;;;13.80
12854;BMP180;6495;51.808;7.478;2023-05-20T04:30:57;101854.00;;;13.80
12854;BMP180;6495;51.808;7.478;2023-05-20T04:33:26;101851.00;;;13.80
12854;BMP180;6495;51.808;7.478;2023-05-20T04:35:56;101853.00;;;13.80
12854;BMP180;6495;51.808;7.478;2023-05-20T04:38:25;101848.00;;;13.80
12854;BMP180;6495;51.808;7.478;2023-05-20T04:40:56;101851.00;;;13.80
12854;BMP180;6495;51.808;7.478;2023-05-20T04:43:25;101849.00;;;13.80
12854;BMP180;6495;51.808;7.478;2023-05-20T04:45:56;101846.00;;;13.80
12854;BMP180;6495;51.808;7.478;2023-05-20T04:48:25;101851.00;;;13.80
12854;BMP180;6495;51.808;7.478;2023-05-20T04:50:55;101848.00;;;13.80
12854;BMP180;6495;51.808;7.478;2023-05-20T04:53:24;101850.00;;;13.80
12854;BMP180;6495;51.808;7.478;2023-05-20T04:55:54;101839.00;;;13.80
12854;BMP180;6495;51.808;7.478;2023-05-20T04:58:23;101842.00;;;13.90
12854;BMP180;6495;51.808;7.478;2023-05-20T05:00:52;101847.00;;;13.90
12854;BMP180;6495;51.808;7.478;2023-05-20T05:03:20;101843.00;;;13.90
12854;BMP180;6495;51.808;7.478;2023-05-20T05:05:48;101840.00;;;13.90
12854;BMP180;6495;51.808;7.478;2023-05-20T05:08:18;101843.00;;;14.00
12854;BMP180;6495;51.808;7.478;2023-05-20T05:10:50;101833.00;;;14.00
12854;BMP180;6495;51.808;7.478;2023-05-20T05:13:19;101841.00;;;14.00
12854;BMP180;6495;51.808;7.478;2023-05-20T05:15:48;101843.00;;;14.10
12854;BMP180;6495;51.808;7.478;2023-05-20T05:18:25;101844.00;;;14.10
12854;BMP180;6495;51.808;7.478;2023-05-20T05:21:01;101843.00;;;14.20
12854;BMP180;6495;51.808;7.478;2023-05-20T05:23:32;101841.00;;;14.20
12854;BMP180;6495;51.808;7.478;2023-05-20T05:26:00;101830.00;;;14.10
12854;BMP180;6495;51.808;7.478;2023-05-20T05:28:29;101835.00;;;14.20
12854;BMP180;6495;51.808;7.478;2023-05-20T05:30:57;101839.00;;;14.20
12854;BMP180;6495;51.808;7.478;2023-05-20T05:33:28;101834.00;;;14.30
12854;BMP180;6495;51.808;7.478;2023-05-20T05:35:57;101834.00;;;14.40
12854;BMP180;6495;51.808;7.478;2023-05-20T05:38:27;101828.00;;;14.50
12854;BMP180;6495;51.808;7.478;2023-05-20T05:40:56;101836.00;;;14.50
12854;BMP180;6495;51.808;7.478;2023-05-20T05:43:25;101848.00;;;14.60
12854;BMP180;6495;51.808;7.478;2023-05-20T05:45:53;101850.00;;;14.70
12854;BMP180;6495;51.808;7.478;2023-05-20T05:48:22;101843.00;;;14.80
12854;BMP180;6495;51.808;7.478;2023-05-20T05:50:50;101854.00;;;14.80
12854;BMP180;6495;51.808;7.478;2023-05-20T05:53:20;101855.00;;;14.90
12854;BMP180;6495;51.808;7.478;2023-05-20T05:55:48;101855.00;;;14.90
12854;BMP180;6495;51.808;7.478;2023-05-20T05:58:19;101850.00;;;15.00
12854;BMP180;6495;51.808;7.478;2023-05-20T06:00:50;101839.00;;;15.10
12854;BMP180;6495;51.808;7.478;2023-05-20T06:03:21;101834.00;;;15.20
12854;BMP180;6495;51.808;7.478;2023-05-20T06:05:50;101842.00;;;15.30
12854;BMP180;6495;51.808;7.478;2023-05-20T06:08:19;101836.00;;;15.40
12854;BMP180;6495;51.808;7.478;2023-05-20T06:10:48;101850.00;;;15.40
12854;BMP180;6495;51.808;7.478;2023-05-20T06:13:19;101852.00;;;15.40
12854;BMP180;6495;51.808;7.478;2023-05-20T06:15:48;101847.00;;;15.40
12854;BMP180;6495;51.808;7.478;2023-05-20T06:18:17;101839.00;;;15.60
12854;BMP180;6495;51.808;7.478;2023-05-20T06:20:52;101834.00;;;15.60
12854;BMP180;6495;51.808;7.478;2023-05-20T06:23:21;101842.00;;;15.70
12854;BMP180;6495;51.808;7.478;2023-05-20T06:25:57;101841.00;;;15.60
12854;BMP180;6495;51.808;7.478;2023-05-20T06:28:29;101833.00;;;15.70
12854;BMP180;6495;51.808;7.478;2023-05-20T06:30:57;101829.00;;;15.70
12854;BMP180;6495;51.808;7.478;2023-05-20T06:33:30;101826.00;;;15.80
12854;BMP180;6495;51.808;7.478;2023-05-20T06:36:02;101843.00;;;15.80
12854;BMP180;6495;51.808;7.478;2023-05-20T06:38:31;101830.00;;;15.90
12854;BMP180;6495;51.808;7.478;2023-05-20T06:41:00;101826.00;;;15.90
12854;BMP180;6495;51.808;7.478;2023-05-20T06:43:32;101827.00;;;16.10
12854;BMP180;6495;51.808;7.478;2023-05-20T06:46:07;101819.00;;;16.20
12854;BMP180;6495;51.808;7.478;2023-05-20T06:48:51;101823.00;;;16.40
12854;BMP180;6495;51.808;7.478;2023-05-20T06:51:21;101824.00;;;16.50
12854;BMP180;6495;51.808;7.478;2023-05-20T06:53:50;101828.00;;;16.40
12854;BMP180;6495;51.808;7.478;2023-05-20T06:56:19;101818.00;;;16.40
12854;BMP180;6495;51.808;7.478;2023-05-20T06:58:49;101827.00;;;16.50
12854;BMP180;6495;51.808;7.478;2023-05-20T07:01:18;101817.00;;;16.50
12854;BMP180;6495;51.808;7.478;2023-05-20T07:03:47;101829.00;;;16.50
12854;BMP180;6495;51.808;7.478;2023-05-20T07:06:16;101824.00;;;16.60
12854;BMP180;6495;51.808;7.478;2023-05-20T07:08:47;101827.00;;;16.60
12854;BMP180;6495;51.808;7.478;2023-05-20T07:11:16;101819.00;;;16.60
12854;BMP180;6495;51.808;7.478;2023-05-20T07:13:44;101821.00;;;16.50
12854;BMP180;6495;51.808;7.478;2023-05-20T07:16:31;101828.00;;;16.40
12854;BMP180;6495;51.808;7.478;2023-05-20T07:19:05;101821.00;;;16.30
12854;BMP180;6495;51.808;7.478;2023-05-20T07:21:49;101819.00;;;16.30
12854;BMP180;6495;51.808;7.478;2023-05-20T07:24:42;101816.00;;;16.30
12854;BMP180;6495;51.808;7.478;2023-05-20T07:27:11;101817.00;;;16.30
12854;BMP180;6495;51.808;7.478;2023-05-20T07:29:39;101814.00;;;16.20
12854;BMP180;6495;51.808;7.478;2023-05-20T07:32:09;101818.00;;;16.20
12854;BMP180;6495;51.808;7.478;2023-05-20T07:34:42;101818.00;;;16.20
12854;BMP180;6495;51.808;7.478;2023-05-20T07:37:10;101814.00;;;16.20
12854;BMP180;6495;51.808;7.478;2023-05-20T07:39:43;101808.00;;;16.20
12854;BMP180;6495;51.808;7.478;2023-05-20T07:42:52;101805.00;;;16.20
12854;BMP180;6495;51.808;7.478;2023-05-20T07:54:06;101807.00;;;15.90
12854;BMP180;6495;51.808;7.478;2023-05-20T07:56:36;101803.00;;;15.90
12854;BMP180;6495;51.808;7.478;2023-05-20T07:59:05;101794.00;;;15.80
12854;BMP180;6495;51.808;7.478;2023-05-20T08:02:04;101802.00;;;15.80
12854;BMP180;6495;51.808;7.478;2023-05-20T08:04:45;101803.00;;;15.80
12854;BMP180;6495;51.808;7.478;2023-05-20T08:07:14;101807.00;;;15.80
12854;BMP180;6495;51.808;7.478;2023-05-20T08:10:02;101801.00;;;15.80
12854;BMP180;6495;51.808;7.478;2023-05-20T08:17:53;101808.00;;;15.70
12854;BMP180;6495;51.808;7.478;2023-05-20T08:33:18;101795.00;;;15.60
12854;BMP180;6495;51.808;7.478;2023-05-20T08:35:51;101785.00;;;15.60
12854;BMP180;6495;51.808;7.478;2023-05-20T08:38:21;101785.00;;;15.60
12854;BMP180;6495;51.808;7.478;2023-05-20T08:40:54;101790.00;;;15.60
12854;BMP180;6495;51.808;7.478;2023-05-20T08:43:25;101788.00;;;15.70
12854;BMP180;6495;51.808;7.478;2023-05-20T08:45:53;101779.00;;;15.70
12854;BMP180;6495;51.808;7.478;2023-05-20T08:48:29;101793.00;;;15.80
12854;BMP180;6495;51.808;7.478;2023-05-20T08:51:01;101785.00;;;15.80
12854;BMP180;6495;51.808;7.478;2023-05-20T08:53:32;101794.00;;;15.80
12854;BMP180;6495;51.808;7.478;2023-05-20T08:56:07;101782.00;;;15.90
12854;BMP180;6495;51.808;7.478;2023-05-20T08:58:44;101797.00;;;15.90
12854;BMP180;6495;51.808;7.478;2023-05-20T09:01:22;101802.00;;;16.00
12854;BMP180;6495;51.808;7.478;2023-05-20T09:04:11;101797.00;;;15.90
12854;BMP180;6495;51.808;7.478;2023-05-20T09:12:00;101789.00;;;16.00
12854;BMP180;6495;51.808;7.478;2023-05-20T09:14:31;101785.00;;;16.00
12854;BMP180;6495;51.808;7.478;2023-05-20T09:17:38;101793.00;;;16.10
12854;BMP180;6495;51.808;7.478;2023-05-20T09:23:09;101781.00;;;16.30
12854;BMP180;6495;51.808;7.478;2023-05-20T09:25:59;101776.00;;;16.30
12854;BMP180;6495;51.808;7.478;2023-05-20T09:28:56;101772.00;;;16.40
12854;BMP180;6495;51.808;7.478;2023-05-20T09:32:05;101769.00;;;16.60
12854;BMP180;6495;51.808;7.478;2023-05-20T09:34:35;101770.00;;;16.60
12854;BMP180;6495;51.808;7.478;2023-05-20T09:37:06;101761.00;;;16.70
12854;BMP180;6495;51.808;7.478;2023-05-20T09:39:43;101773.00;;;16.80
12854;BMP180;6495;51.808;7.478;2023-05-20T09:42:21;101758.00;;;16.80
12854;BMP180;6495;51.808;7.478;2023-05-20T09:44:53;101770.00;;;16.90
12854;BMP180;6495;51.808;7.478;2023-05-20T09:47:24;101765.00;;;17.00
12854;BMP180;6495;51.808;7.478;2023-05-20T09:49:53;101769.00;;;17.10
12854;BMP180;6495;51.808;7.478;2023-05-20T09:52:23;101759.00;;;17.20
12854;BMP180;6495;51.808;7.478;2023-05-20T09:54:54;101786.00;;;17.30
12854;BMP180;6495;51.808;7.478;2023-05-20T09:57:24;101771.00;;;17.30
12854;BMP180;6495;51.808;7.478;2023-05-20T09:59:53;101762.00;;;17.40
12854;BMP180;6495;51.808;7.478;2023-05-20T10:02:21;101764.00;;;17.40
12854;BMP180;6495;51.808;7.478;2023-05-20T10:04:54;101762.00;;;17.50
12854;BMP180;6495;51.808;7.478;2023-05-20T10:10:56;101768.00;;;17.80
12854;BMP180;6495;51.808;7.478;2023-05-20T10:13:53;101769.00;;;17.90
12854;BMP180;6495;51.808;7.478;2023-05-20T10:16:43;101762.00;;;17.80
12854;BMP180;6495;51.808;7.478;2023-05-20T10:19:26;101756.00;;;17.80
12854;BMP180;6495;51.808;7.478;2023-05-20T10:22:01;101741.00;;;17.90
12854;BMP180;6495;51.808;7.478;2023-05-20T10:24:32;101742.00;;;18.00
12854;BMP180;6495;51.808;7.478;2023-05-20T10:27:04;101740.00;;;18.20
12854;BMP180;6495;51.808;7.478;2023-05-20T10:29:43;101755.00;;;18.40
12854;BMP180;6495;51.808;7.478;2023-05-20T10:32:22;101739.00;;;18.40
12854;BMP180;6495;51.808;7.478;2023-05-20T10:34:51;101742.00;;;18.50
12854;BMP180;6495;51.808;7.478;2023-05-20T10:37:26;101744.00;;;18.50
12854;BMP180;6495;51.808;7.478;2023-05-20T10:40:14;101721.00;;;18.50
12854;BMP180;6495;51.808;7.478;2023-05-20T10:42:44;101732.00;;;18.50
12854;BMP180;6495;51.808;7.478;2023-05-20T10:45:25;101735.00;;;18.60
12854;BMP180;6495;51.808;7.478;2023-05-20T10:47:54;101726.00;;;18.60
12854;BMP180;6495;51.808;7.478;2023-05-20T10:50:28;101727.00;;;18.70
12854;BMP180;6495;51.808;7.478;2023-05-20T10:53:05;101706.00;;;18.70
12854;BMP180;6495;51.808;7.478;2023-05-20T10:55:49;101700.00;;;18.80
12854;BMP180;6495;51.808;7.478;2023-05-20T10:58:21;101701.00;;;18.90
12854;BMP180;6495;51.808;7.478;2023-05-20T11:00:54;101710.00;;;18.90
12854;BMP180;6495;51.808;7.478;2023-05-20T11:03:23;101700.00;;;18.90
12854;BMP180;6495;51.808;7.478;2023-05-20T11:05:52;101701.00;;;18.90
12854;BMP180;6495;51.808;7.478;2023-05-20T11:08:21;101700.00;;;18.90
12854;BMP180;6495;51.808;7.478;2023-05-20T11:10:56;101697.00;;;19.00
12854;BMP180;6495;51.808;7.478;2023-05-20T11:13:32;101686.00;;;19.00
12854;BMP180;6495;51.808;7.478;2023-05-20T11:16:01;101686.00;;;19.00
12854;BMP180;6495;51.808;7.478;2023-05-20T11:18:30;101685.00;;;19.00
12854;BMP180;6495;51.808;7.478;2023-05-20T11:21:00;101690.00;;;19.10
12854;BMP180;6495;51.808;7.478;2023-05-20T11:23:29;101682.00;;;19.10
12854;BMP180;6495;51.808;7.478;2023-05-20T11:25:57;101680.00;;;19.10
12854;BMP180;6495;51.808;7.478;2023-05-20T11:28:26;101680.00;;;19.10
12854;BMP180;6495;51.808;7.478;2023-05-20T11:30:55;101678.00;;;19.10
12854;BMP180;6495;51.808;7.478;2023-05-20T11:33:25;101692.00;;;19.10
12854;BMP180;6495;51.808;7.478;2023-05-20T11:35:55;101696.00;;;19.20
12854;BMP180;6495;51.808;7.478;2023-05-20T11:38:23;101689.00;;;19.20
12854;BMP180;6495;51.808;7.478;2023-05-20T11:40:54;101683.00;;;19.20
12854;BMP180;6495;51.808;7.478;2023-05-20T11:43:23;101688.00;;;19.20
12854;BMP180;6495;51.808;7.478;2023-05-20T11:45:55;101684.00;;;19.20
12854;BMP180;6495;51.808;7.478;2023-05-20T11:48:25;101687.00;;;19.30
12854;BMP180;6495;51.808;7.478;2023-05-20T11:50:55;101684.00;;;19.30
12854;BMP180;6495;51.808;7.478;2023-05-20T11:53:28;101682.00;;;19.30
12854;BMP180;6495;51.808;7.478;2023-05-20T11:55:58;101680.00;;;19.30
12854;BMP180;6495;51.808;7.478;2023-05-20T11:58:29;101672.00;;;19.30
12854;BMP180;6495;51.808;7.478;2023-05-20T12:01:07;101671.00;;;19.40
12854;BMP180;6495;51.808;7.478;2023-05-20T12:03:57;101673.00;;;19.50
12854;BMP180;6495;51.808;7.478;2023-05-20T12:06:26;101659.00;;;19.50
12854;BMP180;6495;51.808;7.478;2023-05-20T12:08:54;101656.00;;;19.50
12854;BMP180;6495;51.808;7.478;2023-05-20T12:11:22;101658.00;;;19.50
12854;BMP180;6495;51.808;7.478;2023-05-20T12:13:51;101661.00;;;19.50
12854;BMP180;6495;51.808;7.478;2023-05-20T12:16:21;101651.00;;;19.50
12854;BMP180;6495;51.808;7.478;2023-05-20T12:18:49;101640.00;;;19.60
12854;BMP180;6495;51.808;7.478;2023-05-20T12:21:18;101644.00;;;19.80
12854;BMP180;6495;51.808;7.478;2023-05-20T12:23:46;101652.00;;;19.80
12854;BMP180;6495;51.808;7.478;2023-05-20T12:26:15;101652.00;;;19.70
12854;BMP180;6495;51.808;7.478;2023-05-20T12:28:43;101650.00;;;19.80
12854;BMP180;6495;51.808;7.478;2023-05-20T12:31:11;101650.00;;;19.80
12854;BMP180;6495;51.808;7.478;2023-05-20T12:33:41;101648.00;;;19.80
12854;BMP180;6495;51.808;7.478;2023-05-20T12:36:10;101640.00;;;19.80
12854;BMP180;6495;51.808;7.478;2023-05-20T12:38:39;101631.00;;;19.80
12854;BMP180;6495;51.808;7.478;2023-05-20T12:41:07;101629.00;;;19.80
12854;BMP180;6495;51.808;7.478;2023-05-20T12:43:35;101636.00;;;19.80
12854;BMP180;6495;51.808;7.478;2023-05-20T12:46:04;101639.00;;;19.90
12854;BMP180;6495;51.808;7.478;2023-05-20T12:48:33;101633.00;;;19.90
12854;BMP180;6495;51.808;7.478;2023-05-20T12:51:03;101627.00;;;19.90
12854;BMP180;6495;51.808;7.478;2023-05-20T12:53:31;101631.00;;;19.90
12854;BMP180;6495;51.808;7.478;2023-05-20T12:56:00;101634.00;;;19.90
12854;BMP180;6495;51.808;7.478;2023-05-20T12:58:28;101630.00;;;19.90
12854;BMP180;6495;51.808;7.478;2023-05-20T13:00:57;101628.00;;;19.90
12854;BMP180;6495;51.808;7.478;2023-05-20T13:03:25;101631.00;;;19.90
12854;BMP180;6495;51.808;7.478;2023-05-20T13:05:54;101629.00;;;19.90
12854;BMP180;6495;51.808;7.478;2023-05-20T13:08:29;101630.00;;;19.90
12854;BMP180;6495;51.808;7.478;2023-05-20T13:10:58;101625.00;;;20.00
12854;BMP180;6495;51.808;7.478;2023-05-20T13:13:26;101623.00;;;19.90
12854;BMP180;6495;51.808;7.478;2023-05-20T13:15:56;101620.00;;;20.00
12854;BMP180;6495;51.808;7.478;2023-05-20T13:18:24;101616.00;;;20.00
12854;BMP180;6495;51.808;7.478;2023-05-20T13:20:52;101614.00;;;20.10
12854;BMP180;6495;51.808;7.478;2023-05-20T13:23:21;101623.00;;;20.20
12854;BMP180;6495;51.808;7.478;2023-05-20T13:25:53;101617.00;;;20.20
12854;BMP180;6495;51.808;7.478;2023-05-20T13:28:21;101614.00;;;20.20
12854;BMP180;6495;51.808;7.478;2023-05-20T13:30:50;101605.00;;;20.30
12854;BMP180;6495;51.808;7.478;2023-05-20T13:34:24;101609.00;;;20.30
12854;BMP180;6495;51.808;7.478;2023-05-20T13:37:21;101603.00;;;20.30
12854;BMP180;6495;51.808;7.478;2023-05-20T13:40:15;101606.00;;;20.30
12854;BMP180;6495;51.808;7.478;2023-05-20T13:43:08;101607.00;;;20.40
12854;BMP180;6495;51.808;7.478;2023-05-20T13:45:50;101591.00;;;20.40
12854;BMP180;6495;51.808;7.478;2023-05-20T13:48:21;101604.00;;;20.50
12854;BMP180;6495;51.808;7.478;2023-05-20T13:51:07;101594.00;;;20.60
12854;BMP180;6495;51.808;7.478;2023-05-20T13:53:38;101595.00;;;20.80
12854;BMP180;6495;51.808;7.478;2023-05-20T13:56:11;101589.00;;;20.80
12854;BMP180;6495;51.808;7.478;2023-05-20T13:59:46;101595.00;;;20.90
12854;BMP180;6495;51.808;7.478;2023-05-20T14:02:40;101594.00;;;20.70
12854;BMP180;6495;51.808;7.478;2023-05-20T14:06:04;101591.00;;;20.70
12854;BMP180;6495;51.808;7.478;2023-05-20T14:10:20;101588.00;;;20.70
12854;BMP180;6495;51.808;7.478;2023-05-20T14:19:05;101574.00;;;20.60
12854;BMP180;6495;51.808;7.478;2023-05-20T14:22:01;101561.00;;;20.70
12854;BMP180;6495;51.808;7.478;2023-05-20T14:25:22;101574.00;;;20.70
12854;BMP180;6495;51.808;7.478;2023-05-20T14:28:25;101565.00;;;20.70
12854;BMP180;6495;51.808;7.478;2023-05-20T14:31:23;101570.00;;;20.60
12854;BMP180;6495;51.808;7.478;2023-05-20T14:34:23;101559.00;;;20.60
12854;BMP180;6495;51.808;7.478;2023-05-20T14:37:12;101545.00;;;20.60
12854;BMP180;6495;51.808;7.478;2023-05-20T14:40:03;101554.00;;;20.50
12854;BMP180;6495;51.808;7.478;2023-05-20T14:42:50;101549.00;;;20.50
12854;BMP180;6495;51.808;7.478;2023-05-20T14:45:22;101557.00;;;20.50
12854;BMP180;6495;51.808;7.478;2023-05-20T14:47:54;101550.00;;;20.70
12854;BMP180;6495;51.808;7.478;2023-05-20T14:50:33;101558.00;;;20.70
12854;BMP180;6495;51.808;7.478;2023-05-20T14:53:18;101564.00;;;20.70
12854;BMP180;6495;51.808;7.478;2023-05-20T14:55:50;101555.00;;;20.70
12854;BMP180;6495;51.808;7.478;2023-05-20T14:58:30;101554.00;;;20.70
12854;BMP180;6495;51.808;7.478;2023-05-20T15:01:35;101542.00;;;20.70
12854;BMP180;6495;51.808;7.478;2023-05-20T15:04:44;101543.00;;;20.80
12854;BMP180;6495;51.808;7.478;2023-05-20T15:07:33;101540.00;;;20.80
12854;BMP180;6495;51.808;7.478;2023-05-20T15:10:33;101546.00;;;20.80
12854;BMP180;6495;51.808;7.478;2023-05-20T15:13:12;101544.00;;;20.80
12854;BMP180;6495;51.808;7.478;2023-05-20T15:16:21;101544.00;;;20.80
12854;BMP180;6495;51.808;7.478;2023-05-20T15:19:56;101546.00;;;20.80
12854;BMP180;6495;51.808;7.478;2023-05-20T15:22:52;101543.00;;;20.80
12854;BMP180;6495;51.808;7.478;2023-05-20T15:26:38;101536.00;;;20.90
12854;BMP180;6495;51.808;7.478;2023-05-20T15:42:59;101540.00;;;20.70
12854;BMP180;6495;51.808;7.478;2023-05-20T15:46:05;101540.00;;;20.70
12854;BMP180;6495;51.808;7.478;2023-05-20T15:48:36;101543.00;;;20.70